sensor_id;sensor_type;location;lat;lon;timestamp;P1;durP1;ratioP1;P2;durP2;ratioP2
17886;SDS011;9069;52.044;7.472;2024-01-30T00:00:05;12.07;;;5.65;;
17886;SDS011;9069;52.044;7.472;2024-01-30T00:02:32;10.52;;;5.85;;
17886;SDS011;9069;52.044;7.472;2024-01-30T00:04:59;10.88;;;5.80;;
17886;SDS011;9069;52.044;7.472;2024-01-30T00:07:26;8.00;;;4.78;;
17886;SDS011;9069;52.044;7.472;2024-01-30T00:09:53;8.63;;;5.35;;
17886;SDS011;9069;52.044;7.472;2024-01-30T00:12:21;9.27;;;6.00;;
17886;SDS011;9069;52.044;7.472;2024-01-30T00:14:47;9.23;;;5.53;;
17886;SDS011;9069;52.044;7.472;2024-01-30T00:17:19;9.32;;;5.80;;
17886;SDS011;9069;52.044;7.472;2024-01-30T00:19:47;12.05;;;5.32;;
17886;SDS011;9069;52.044;7.472;2024-01-30T00:22:14;8.52;;;5.85;;
17886;SDS011;9069;52.044;7.472;2024-01-30T00:24:41;10.90;;;5.85;;
17886;SDS011;9069;52.044;7.472;2024-01-30T00:27:08;11.50;;;5.43;;
17886;SDS011;9069;52.044;7.472;2024-01-30T00:29:35;9.52;;;5.57;;
17886;SDS011;9069;52.044;7.472;2024-01-30T00:32:01;7.78;;;5.40;;
17886;SDS011;9069;52.044;7.472;2024-01-30T00:34:28;10.80;;;5.68;;
17886;SDS011;9069;52.044;7.472;2024-01-30T00:36:55;8.05;;;4.65;;
17886;SDS011;9069;52.044;7.472;2024-01-30T00:39:22;10.73;;;5.82;;
17886;SDS011;9069;52.044;7.472;2024-01-30T00:41:49;11.45;;;5.80;;
17886;SDS011;9069;52.044;7.472;2024-01-30T00:44:16;8.75;;;5.47;;
17886;SDS011;9069;52.044;7.472;2024-01-30T00:46:43;9.32;;;5.53;;
17886;SDS011;9069;52.044;7.472;2024-01-30T00:49:10;9.73;;;5.00;;
17886;SDS011;9069;52.044;7.472;2024-01-30T00:51:37;8.30;;;5.65;;
17886;SDS011;9069;52.044;7.472;2024-01-30T00:54:04;11.15;;;5.60;;
17886;SDS011;9069;52.044;7.472;2024-01-30T00:56:32;9.07;;;5.15;;
17886;SDS011;9069;52.044;7.472;2024-01-30T00:58:59;10.65;;;5.80;;
17886;SDS011;9069;52.044;7.472;2024-01-30T01:01:26;8.50;;;5.65;;
17886;SDS011;9069;52.044;7.472;2024-01-30T01:03:53;11.75;;;6.07;;
17886;SDS011;9069;52.044;7.472;2024-01-30T01:06:20;7.88;;;5.25;;
17886;SDS011;9069;52.044;7.472;2024-01-30T01:08:47;9.70;;;5.43;;
17886;SDS011;9069;52.044;7.472;2024-01-30T01:11:14;6.60;;;4.78;;
17886;SDS011;9069;52.044;7.472;2024-01-30T01:13:40;10.48;;;5.70;;
17886;SDS011;9069;52.044;7.472;2024-01-30T01:16:07;10.75;;;5.70;;
17886;SDS011;9069;52.044;7.472;2024-01-30T01:18:34;11.07;;;5.55;;
17886;SDS011;9069;52.044;7.472;2024-01-30T01:21:01;10.65;;;5.60;;
17886;SDS011;9069;52.044;7.472;2024-01-30T01:23:28;8.95;;;5.63;;
17886;SDS011;9069;52.044;7.472;2024-01-30T01:25:55;10.30;;;5.25;;
17886;SDS011;9069;52.044;7.472;2024-01-30T01:28:27;10.52;;;5.45;;
17886;SDS011;9069;52.044;7.472;2024-01-30T01:30:54;11.30;;;5.88;;
17886;SDS011;9069;52.044;7.472;2024-01-30T01:33:27;8.50;;;5.28;;
17886;SDS011;9069;52.044;7.472;2024-01-30T01:35:54;7.82;;;4.75;;
17886;SDS011;9069;52.044;7.472;2024-01-30T01:38:21;10.75;;;5.82;;
17886;SDS011;9069;52.044;7.472;2024-01-30T01:40:48;9.13;;;5.90;;
17886;SDS011;9069;52.044;7.472;2024-01-30T01:43:14;9.80;;;5.90;;
17886;SDS011;9069;52.044;7.472;2024-01-30T01:45:41;9.60;;;5.90;;
17886;SDS011;9069;52.044;7.472;2024-01-30T01:48:09;8.55;;;5.20;;
17886;SDS011;9069;52.044;7.472;2024-01-30T01:50:37;9.13;;;5.70;;
17886;SDS011;9069;52.044;7.472;2024-01-30T01:53:05;9.20;;;5.43;;
17886;SDS011;9069;52.044;7.472;2024-01-30T01:55:34;7.55;;;5.50;;
17886;SDS011;9069;52.044;7.472;2024-01-30T01:58:02;8.98;;;5.28;;
17886;SDS011;9069;52.044;7.472;2024-01-30T02:00:29;8.45;;;5.47;;
17886;SDS011;9069;52.044;7.472;2024-01-30T02:02:57;10.48;;;5.82;;
17886;SDS011;9069;52.044;7.472;2024-01-30T02:05:24;10.23;;;5.57;;
17886;SDS011;9069;52.044;7.472;2024-01-30T02:07:54;8.45;;;5.57;;
17886;SDS011;9069;52.044;7.472;2024-01-30T02:10:21;8.98;;;5.65;;
17886;SDS011;9069;52.044;7.472;2024-01-30T02:12:48;8.52;;;5.75;;
17886;SDS011;9069;52.044;7.472;2024-01-30T02:15:16;10.57;;;5.47;;
17886;SDS011;9069;52.044;7.472;2024-01-30T02:17:43;8.57;;;4.65;;
17886;SDS011;9069;52.044;7.472;2024-01-30T02:20:11;11.55;;;5.07;;
17886;SDS011;9069;52.044;7.472;2024-01-30T02:22:39;9.43;;;5.40;;
17886;SDS011;9069;52.044;7.472;2024-01-30T02:25:07;7.78;;;5.10;;
17886;SDS011;9069;52.044;7.472;2024-01-30T02:27:34;8.88;;;5.38;;
17886;SDS011;9069;52.044;7.472;2024-01-30T02:30:01;9.65;;;5.78;;
17886;SDS011;9069;52.044;7.472;2024-01-30T02:32:28;9.80;;;6.10;;
17886;SDS011;9069;52.044;7.472;2024-01-30T02:34:55;7.00;;;5.10;;
17886;SDS011;9069;52.044;7.472;2024-01-30T02:37:22;11.02;;;5.85;;
17886;SDS011;9069;52.044;7.472;2024-01-30T02:39:48;9.35;;;5.45;;
17886;SDS011;9069;52.044;7.472;2024-01-30T02:42:15;9.90;;;5.45;;
17886;SDS011;9069;52.044;7.472;2024-01-30T02:44:42;10.25;;;5.75;;
17886;SDS011;9069;52.044;7.472;2024-01-30T02:47:09;9.40;;;6.00;;
17886;SDS011;9069;52.044;7.472;2024-01-30T02:49:36;9.30;;;5.70;;
17886;SDS011;9069;52.044;7.472;2024-01-30T02:52:03;10.70;;;5.90;;
17886;SDS011;9069;52.044;7.472;2024-01-30T02:54:30;10.68;;;5.53;;
17886;SDS011;9069;52.044;7.472;2024-01-30T02:56:57;9.45;;;5.93;;
17886;SDS011;9069;52.044;7.472;2024-01-30T02:59:24;10.13;;;5.18;;
17886;SDS011;9069;52.044;7.472;2024-01-30T03:01:50;11.13;;;6.38;;
17886;SDS011;9069;52.044;7.472;2024-01-30T03:04:17;9.18;;;5.65;;
17886;SDS011;9069;52.044;7.472;2024-01-30T03:06:45;9.60;;;5.53;;
17886;SDS011;9069;52.044;7.472;2024-01-30T03:09:15;11.02;;;6.30;;
17886;SDS011;9069;52.044;7.472;2024-01-30T03:11:44;11.07;;;5.90;;
17886;SDS011;9069;52.044;7.472;2024-01-30T03:14:11;9.90;;;5.82;;
17886;SDS011;9069;52.044;7.472;2024-01-30T03:16:38;10.40;;;6.13;;
17886;SDS011;9069;52.044;7.472;2024-01-30T03:19:06;10.40;;;5.80;;
17886;SDS011;9069;52.044;7.472;2024-01-30T03:21:34;8.90;;;5.78;;
17886;SDS011;9069;52.044;7.472;2024-01-30T03:24:01;8.75;;;5.68;;
17886;SDS011;9069;52.044;7.472;2024-01-30T03:26:28;8.35;;;5.60;;
17886;SDS011;9069;52.044;7.472;2024-01-30T03:28:55;9.95;;;6.25;;
17886;SDS011;9069;52.044;7.472;2024-01-30T03:31:22;9.27;;;5.85;;
17886;SDS011;9069;52.044;7.472;2024-01-30T03:33:49;8.40;;;5.57;;
17886;SDS011;9069;52.044;7.472;2024-01-30T03:36:15;9.18;;;6.03;;
17886;SDS011;9069;52.044;7.472;2024-01-30T03:38:42;11.35;;;6.00;;
17886;SDS011;9069;52.044;7.472;2024-01-30T03:41:09;9.57;;;6.28;;
17886;SDS011;9069;52.044;7.472;2024-01-30T03:43:36;9.90;;;6.13;;
17886;SDS011;9069;52.044;7.472;2024-01-30T03:46:03;10.95;;;5.97;;
17886;SDS011;9069;52.044;7.472;2024-01-30T03:48:31;10.02;;;6.28;;
17886;SDS011;9069;52.044;7.472;2024-01-30T03:50:58;10.15;;;6.07;;
17886;SDS011;9069;52.044;7.472;2024-01-30T03:53:24;13.23;;;5.80;;
17886;SDS011;9069;52.044;7.472;2024-01-30T03:55:51;12.52;;;6.18;;
17886;SDS011;9069;52.044;7.472;2024-01-30T03:58:18;10.25;;;5.75;;
17886;SDS011;9069;52.044;7.472;2024-01-30T04:00:45;12.77;;;6.45;;
17886;SDS011;9069;52.044;7.472;2024-01-30T04:03:12;11.43;;;5.95;;
17886;SDS011;9069;52.044;7.472;2024-01-30T04:05:41;11.55;;;6.13;;
17886;SDS011;9069;52.044;7.472;2024-01-30T04:08:08;10.00;;;5.82;;
17886;SDS011;9069;52.044;7.472;2024-01-30T04:10:35;10.38;;;6.00;;
17886;SDS011;9069;52.044;7.472;2024-01-30T04:13:02;9.43;;;5.63;;
17886;SDS011;9069;52.044;7.472;2024-01-30T04:15:29;10.07;;;5.70;;
17886;SDS011;9069;52.044;7.472;2024-01-30T04:17:59;9.27;;;5.93;;
17886;SDS011;9069;52.044;7.472;2024-01-30T04:20:26;10.35;;;5.78;;
17886;SDS011;9069;52.044;7.472;2024-01-30T04:22:53;12.95;;;5.95;;
17886;SDS011;9069;52.044;7.472;2024-01-30T04:25:19;10.95;;;5.90;;
17886;SDS011;9069;52.044;7.472;2024-01-30T04:27:47;9.95;;;6.15;;
17886;SDS011;9069;52.044;7.472;2024-01-30T04:30:14;12.43;;;6.32;;
17886;SDS011;9069;52.044;7.472;2024-01-30T04:32:41;13.60;;;7.03;;
17886;SDS011;9069;52.044;7.472;2024-01-30T04:35:09;9.88;;;6.13;;
17886;SDS011;9069;52.044;7.472;2024-01-30T04:37:37;9.77;;;6.40;;
17886;SDS011;9069;52.044;7.472;2024-01-30T04:40:05;12.95;;;5.75;;
17886;SDS011;9069;52.044;7.472;2024-01-30T04:42:32;10.70;;;5.85;;
17886;SDS011;9069;52.044;7.472;2024-01-30T04:44:59;16.00;;;6.93;;
17886;SDS011;9069;52.044;7.472;2024-01-30T04:47:26;10.35;;;6.13;;
17886;SDS011;9069;52.044;7.472;2024-01-30T04:49:53;11.82;;;6.30;;
17886;SDS011;9069;52.044;7.472;2024-01-30T04:52:20;12.10;;;5.72;;
17886;SDS011;9069;52.044;7.472;2024-01-30T04:54:47;11.23;;;6.45;;
17886;SDS011;9069;52.044;7.472;2024-01-30T04:57:14;10.20;;;6.40;;
17886;SDS011;9069;52.044;7.472;2024-01-30T04:59:42;12.40;;;6.28;;
17886;SDS011;9069;52.044;7.472;2024-01-30T05:02:08;14.63;;;7.00;;
17886;SDS011;9069;52.044;7.472;2024-01-30T05:04:36;12.60;;;6.38;;
17886;SDS011;9069;52.044;7.472;2024-01-30T05:07:03;12.50;;;6.65;;
17886;SDS011;9069;52.044;7.472;2024-01-30T05:09:30;12.15;;;6.30;;
17886;SDS011;9069;52.044;7.472;2024-01-30T05:11:56;11.23;;;6.20;;
17886;SDS011;9069;52.044;7.472;2024-01-30T05:14:24;8.82;;;5.75;;
17886;SDS011;9069;52.044;7.472;2024-01-30T05:16:51;11.50;;;6.32;;
17886;SDS011;9069;52.044;7.472;2024-01-30T05:19:18;9.82;;;6.30;;
17886;SDS011;9069;52.044;7.472;2024-01-30T05:21:45;11.85;;;6.00;;
17886;SDS011;9069;52.044;7.472;2024-01-30T05:24:12;9.13;;;6.18;;
17886;SDS011;9069;52.044;7.472;2024-01-30T05:26:39;10.77;;;6.13;;
17886;SDS011;9069;52.044;7.472;2024-01-30T05:29:06;11.75;;;6.20;;
17886;SDS011;9069;52.044;7.472;2024-01-30T05:31:34;12.20;;;5.75;;
17886;SDS011;9069;52.044;7.472;2024-01-30T05:34:01;9.60;;;5.57;;
17886;SDS011;9069;52.044;7.472;2024-01-30T05:36:28;10.15;;;5.65;;
17886;SDS011;9069;52.044;7.472;2024-01-30T05:38:55;10.82;;;5.85;;
17886;SDS011;9069;52.044;7.472;2024-01-30T05:41:22;14.98;;;6.85;;
17886;SDS011;9069;52.044;7.472;2024-01-30T05:43:49;10.07;;;5.97;;
17886;SDS011;9069;52.044;7.472;2024-01-30T05:46:16;9.50;;;5.82;;
17886;SDS011;9069;52.044;7.472;2024-01-30T05:48:43;11.82;;;5.90;;
17886;SDS011;9069;52.044;7.472;2024-01-30T05:51:10;10.90;;;5.93;;
17886;SDS011;9069;52.044;7.472;2024-01-30T05:53:36;11.60;;;6.13;;
17886;SDS011;9069;52.044;7.472;2024-01-30T05:56:04;8.73;;;5.68;;
17886;SDS011;9069;52.044;7.472;2024-01-30T05:58:31;11.73;;;6.68;;
17886;SDS011;9069;52.044;7.472;2024-01-30T06:00:58;10.40;;;6.20;;
17886;SDS011;9069;52.044;7.472;2024-01-30T06:03:25;11.10;;;6.18;;
17886;SDS011;9069;52.044;7.472;2024-01-30T06:05:52;10.75;;;6.03;;
17886;SDS011;9069;52.044;7.472;2024-01-30T06:08:19;11.73;;;6.45;;
17886;SDS011;9069;52.044;7.472;2024-01-30T06:10:45;9.30;;;5.55;;
17886;SDS011;9069;52.044;7.472;2024-01-30T06:13:13;9.30;;;6.15;;
17886;SDS011;9069;52.044;7.472;2024-01-30T06:15:40;12.35;;;6.30;;
17886;SDS011;9069;52.044;7.472;2024-01-30T06:18:07;9.95;;;5.88;;
17886;SDS011;9069;52.044;7.472;2024-01-30T06:20:34;11.00;;;6.95;;
17886;SDS011;9069;52.044;7.472;2024-01-30T06:23:02;12.20;;;5.88;;
17886;SDS011;9069;52.044;7.472;2024-01-30T06:25:29;10.70;;;5.90;;
17886;SDS011;9069;52.044;7.472;2024-01-30T06:27:55;14.27;;;6.22;;
17886;SDS011;9069;52.044;7.472;2024-01-30T06:30:22;11.13;;;6.25;;
17886;SDS011;9069;52.044;7.472;2024-01-30T06:32:49;11.93;;;6.93;;
17886;SDS011;9069;52.044;7.472;2024-01-30T06:35:16;11.23;;;6.10;;
17886;SDS011;9069;52.044;7.472;2024-01-30T06:37:43;8.15;;;5.45;;
17886;SDS011;9069;52.044;7.472;2024-01-30T06:40:11;10.80;;;6.03;;
17886;SDS011;9069;52.044;7.472;2024-01-30T06:42:38;9.10;;;5.32;;
17886;SDS011;9069;52.044;7.472;2024-01-30T06:45:05;10.18;;;5.82;;
17886;SDS011;9069;52.044;7.472;2024-01-30T06:47:32;10.75;;;6.22;;
17886;SDS011;9069;52.044;7.472;2024-01-30T06:49:59;9.25;;;5.85;;
17886;SDS011;9069;52.044;7.472;2024-01-30T06:52:26;10.63;;;6.18;;
17886;SDS011;9069;52.044;7.472;2024-01-30T06:54:53;9.05;;;5.60;;
17886;SDS011;9069;52.044;7.472;2024-01-30T06:57:20;7.40;;;5.53;;
17886;SDS011;9069;52.044;7.472;2024-01-30T06:59:47;10.18;;;5.35;;
17886;SDS011;9069;52.044;7.472;2024-01-30T07:02:14;8.38;;;5.80;;
17886;SDS011;9069;52.044;7.472;2024-01-30T07:04:41;7.68;;;5.00;;
17886;SDS011;9069;52.044;7.472;2024-01-30T07:07:12;7.63;;;4.70;;
17886;SDS011;9069;52.044;7.472;2024-01-30T07:09:41;9.40;;;5.30;;
17886;SDS011;9069;52.044;7.472;2024-01-30T07:12:08;9.85;;;5.28;;
17886;SDS011;9069;52.044;7.472;2024-01-30T07:14:35;6.93;;;4.55;;
17886;SDS011;9069;52.044;7.472;2024-01-30T07:17:02;10.00;;;5.95;;
17886;SDS011;9069;52.044;7.472;2024-01-30T07:19:29;7.43;;;4.90;;
17886;SDS011;9069;52.044;7.472;2024-01-30T07:21:56;10.60;;;5.72;;
17886;SDS011;9069;52.044;7.472;2024-01-30T07:24:22;10.43;;;5.25;;
17886;SDS011;9069;52.044;7.472;2024-01-30T07:26:49;9.48;;;5.80;;
17886;SDS011;9069;52.044;7.472;2024-01-30T07:29:16;10.20;;;5.85;;
17886;SDS011;9069;52.044;7.472;2024-01-30T07:31:43;10.38;;;6.20;;
17886;SDS011;9069;52.044;7.472;2024-01-30T07:34:10;11.38;;;5.50;;
17886;SDS011;9069;52.044;7.472;2024-01-30T07:36:37;9.07;;;5.70;;
17886;SDS011;9069;52.044;7.472;2024-01-30T07:39:05;7.50;;;4.93;;
17886;SDS011;9069;52.044;7.472;2024-01-30T07:41:32;10.05;;;5.38;;
17886;SDS011;9069;52.044;7.472;2024-01-30T07:43:59;12.23;;;6.28;;
17886;SDS011;9069;52.044;7.472;2024-01-30T07:46:27;13.93;;;5.97;;
17886;SDS011;9069;52.044;7.472;2024-01-30T07:48:54;8.35;;;5.53;;
17886;SDS011;9069;52.044;7.472;2024-01-30T07:51:23;10.00;;;5.13;;
17886;SDS011;9069;52.044;7.472;2024-01-30T07:53:50;9.90;;;5.70;;
17886;SDS011;9069;52.044;7.472;2024-01-30T07:56:17;9.48;;;4.95;;
17886;SDS011;9069;52.044;7.472;2024-01-30T07:58:44;10.85;;;5.90;;
17886;SDS011;9069;52.044;7.472;2024-01-30T08:01:11;9.43;;;5.18;;
17886;SDS011;9069;52.044;7.472;2024-01-30T08:03:38;8.40;;;5.10;;
17886;SDS011;9069;52.044;7.472;2024-01-30T08:06:07;8.38;;;5.45;;
17886;SDS011;9069;52.044;7.472;2024-01-30T08:08:34;6.88;;;4.80;;
17886;SDS011;9069;52.044;7.472;2024-01-30T08:11:01;7.18;;;5.18;;
17886;SDS011;9069;52.044;7.472;2024-01-30T08:13:28;14.32;;;6.07;;
17886;SDS011;9069;52.044;7.472;2024-01-30T08:15:55;9.27;;;4.97;;
17886;SDS011;9069;52.044;7.472;2024-01-30T08:18:22;7.95;;;4.63;;
17886;SDS011;9069;52.044;7.472;2024-01-30T08:20:49;11.73;;;4.85;;
17886;SDS011;9069;52.044;7.472;2024-01-30T08:23:16;11.07;;;5.70;;
17886;SDS011;9069;52.044;7.472;2024-01-30T08:25:42;11.65;;;6.25;;
17886;SDS011;9069;52.044;7.472;2024-01-30T08:28:09;10.93;;;6.50;;
17886;SDS011;9069;52.044;7.472;2024-01-30T08:30:36;11.30;;;5.07;;
17886;SDS011;9069;52.044;7.472;2024-01-30T08:33:05;8.70;;;4.85;;
17886;SDS011;9069;52.044;7.472;2024-01-30T08:35:32;10.32;;;5.30;;
17886;SDS011;9069;52.044;7.472;2024-01-30T08:38:00;10.43;;;5.78;;
17886;SDS011;9069;52.044;7.472;2024-01-30T08:40:27;8.13;;;5.22;;
17886;SDS011;9069;52.044;7.472;2024-01-30T08:42:55;9.52;;;5.65;;
17886;SDS011;9069;52.044;7.472;2024-01-30T08:45:22;10.82;;;5.80;;
17886;SDS011;9069;52.044;7.472;2024-01-30T08:47:49;8.23;;;4.97;;
17886;SDS011;9069;52.044;7.472;2024-01-30T08:50:16;8.55;;;4.80;;
17886;SDS011;9069;52.044;7.472;2024-01-30T08:52:43;9.57;;;5.75;;
17886;SDS011;9069;52.044;7.472;2024-01-30T08:55:12;9.20;;;5.32;;
17886;SDS011;9069;52.044;7.472;2024-01-30T08:57:39;12.65;;;5.93;;
17886;SDS011;9069;52.044;7.472;2024-01-30T09:00:07;10.32;;;5.25;;
17886;SDS011;9069;52.044;7.472;2024-01-30T09:02:36;9.90;;;5.18;;
17886;SDS011;9069;52.044;7.472;2024-01-30T09:05:03;11.30;;;5.45;;
17886;SDS011;9069;52.044;7.472;2024-01-30T09:07:30;9.52;;;5.43;;
17886;SDS011;9069;52.044;7.472;2024-01-30T09:09:57;9.80;;;6.03;;
17886;SDS011;9069;52.044;7.472;2024-01-30T09:12:24;10.45;;;6.53;;
17886;SDS011;9069;52.044;7.472;2024-01-30T09:14:51;9.18;;;5.07;;
17886;SDS011;9069;52.044;7.472;2024-01-30T09:17:17;13.20;;;5.75;;
17886;SDS011;9069;52.044;7.472;2024-01-30T09:19:45;10.40;;;5.63;;
17886;SDS011;9069;52.044;7.472;2024-01-30T09:22:12;9.70;;;4.90;;
17886;SDS011;9069;52.044;7.472;2024-01-30T09:24:39;13.85;;;5.93;;
17886;SDS011;9069;52.044;7.472;2024-01-30T09:27:07;8.52;;;5.50;;
17886;SDS011;9069;52.044;7.472;2024-01-30T09:29:33;10.18;;;5.57;;
17886;SDS011;9069;52.044;7.472;2024-01-30T09:32:03;11.70;;;5.65;;
17886;SDS011;9069;52.044;7.472;2024-01-30T09:34:30;9.40;;;5.60;;
17886;SDS011;9069;52.044;7.472;2024-01-30T09:36:58;9.70;;;5.50;;
17886;SDS011;9069;52.044;7.472;2024-01-30T09:39:26;9.45;;;5.20;;
17886;SDS011;9069;52.044;7.472;2024-01-30T09:42:01;10.20;;;5.65;;
17886;SDS011;9069;52.044;7.472;2024-01-30T09:44:29;11.43;;;5.90;;
17886;SDS011;9069;52.044;7.472;2024-01-30T09:46:57;9.23;;;5.15;;
17886;SDS011;9069;52.044;7.472;2024-01-30T09:49:31;7.70;;;4.82;;
17886;SDS011;9069;52.044;7.472;2024-01-30T09:51:59;6.60;;;4.43;;
17886;SDS011;9069;52.044;7.472;2024-01-30T09:54:27;8.70;;;5.18;;
17886;SDS011;9069;52.044;7.472;2024-01-30T09:56:59;10.75;;;6.05;;
17886;SDS011;9069;52.044;7.472;2024-01-30T09:59:27;8.30;;;5.93;;
17886;SDS011;9069;52.044;7.472;2024-01-30T10:01:54;9.45;;;6.40;;
17886;SDS011;9069;52.044;7.472;2024-01-30T10:04:21;12.43;;;7.35;;
17886;SDS011;9069;52.044;7.472;2024-01-30T10:06:48;11.55;;;7.18;;
17886;SDS011;9069;52.044;7.472;2024-01-30T10:09:15;12.68;;;7.72;;
17886;SDS011;9069;52.044;7.472;2024-01-30T10:11:42;11.25;;;7.28;;
17886;SDS011;9069;52.044;7.472;2024-01-30T10:14:09;13.02;;;7.13;;
17886;SDS011;9069;52.044;7.472;2024-01-30T10:16:36;13.85;;;7.70;;
17886;SDS011;9069;52.044;7.472;2024-01-30T10:19:03;16.48;;;5.90;;
17886;SDS011;9069;52.044;7.472;2024-01-30T10:21:30;9.95;;;5.75;;
17886;SDS011;9069;52.044;7.472;2024-01-30T10:23:57;9.60;;;4.95;;
17886;SDS011;9069;52.044;7.472;2024-01-30T10:26:24;7.88;;;4.70;;
17886;SDS011;9069;52.044;7.472;2024-01-30T10:28:51;8.68;;;4.72;;
17886;SDS011;9069;52.044;7.472;2024-01-30T10:31:17;9.48;;;4.90;;
17886;SDS011;9069;52.044;7.472;2024-01-30T10:33:47;8.10;;;4.75;;
17886;SDS011;9069;52.044;7.472;2024-01-30T10:36:14;6.80;;;4.40;;
17886;SDS011;9069;52.044;7.472;2024-01-30T10:38:46;7.65;;;4.50;;
17886;SDS011;9069;52.044;7.472;2024-01-30T10:41:17;10.73;;;4.78;;
17886;SDS011;9069;52.044;7.472;2024-01-30T10:43:50;8.45;;;4.18;;
17886;SDS011;9069;52.044;7.472;2024-01-30T10:46:32;6.90;;;4.28;;
17886;SDS011;9069;52.044;7.472;2024-01-30T10:49:01;7.22;;;4.50;;
17886;SDS011;9069;52.044;7.472;2024-01-30T10:51:29;6.45;;;4.40;;
17886;SDS011;9069;52.044;7.472;2024-01-30T10:53:58;7.18;;;4.25;;
17886;SDS011;9069;52.044;7.472;2024-01-30T10:56:26;8.48;;;4.75;;
17886;SDS011;9069;52.044;7.472;2024-01-30T10:58:54;6.57;;;4.22;;
17886;SDS011;9069;52.044;7.472;2024-01-30T11:01:22;8.15;;;4.22;;
17886;SDS011;9069;52.044;7.472;2024-01-30T11:03:53;5.68;;;3.63;;
17886;SDS011;9069;52.044;7.472;2024-01-30T11:06:23;7.75;;;4.07;;
17886;SDS011;9069;52.044;7.472;2024-01-30T11:09:00;9.55;;;4.07;;
17886;SDS011;9069;52.044;7.472;2024-01-30T11:11:30;6.13;;;4.45;;
17886;SDS011;9069;52.044;7.472;2024-01-30T11:14:00;7.57;;;4.25;;
17886;SDS011;9069;52.044;7.472;2024-01-30T11:16:30;14.02;;;4.55;;
17886;SDS011;9069;52.044;7.472;2024-01-30T11:19:00;6.25;;;4.00;;
17886;SDS011;9069;52.044;7.472;2024-01-30T11:21:28;6.32;;;4.18;;
17886;SDS011;9069;52.044;7.472;2024-01-30T11:23:55;6.07;;;3.70;;
17886;SDS011;9069;52.044;7.472;2024-01-30T11:26:29;8.27;;;4.32;;
17886;SDS011;9069;52.044;7.472;2024-01-30T11:28:58;9.55;;;3.92;;
17886;SDS011;9069;52.044;7.472;2024-01-30T11:31:29;7.60;;;4.28;;
17886;SDS011;9069;52.044;7.472;2024-01-30T11:33:57;7.53;;;4.75;;
17886;SDS011;9069;52.044;7.472;2024-01-30T11:36:25;10.18;;;4.05;;
17886;SDS011;9069;52.044;7.472;2024-01-30T11:38:55;10.23;;;4.40;;
17886;SDS011;9069;52.044;7.472;2024-01-30T11:41:22;5.70;;;3.67;;
17886;SDS011;9069;52.044;7.472;2024-01-30T11:43:52;5.13;;;3.53;;
17886;SDS011;9069;52.044;7.472;2024-01-30T11:46:19;7.18;;;4.63;;
17886;SDS011;9069;52.044;7.472;2024-01-30T11:48:46;6.75;;;3.88;;
17886;SDS011;9069;52.044;7.472;2024-01-30T11:51:13;8.43;;;4.43;;
17886;SDS011;9069;52.044;7.472;2024-01-30T11:53:41;10.27;;;4.55;;
17886;SDS011;9069;52.044;7.472;2024-01-30T11:56:08;9.93;;;4.43;;
17886;SDS011;9069;52.044;7.472;2024-01-30T11:58:35;8.50;;;4.13;;
17886;SDS011;9069;52.044;7.472;2024-01-30T12:01:02;11.68;;;4.72;;
17886;SDS011;9069;52.044;7.472;2024-01-30T12:03:29;6.25;;;3.95;;
17886;SDS011;9069;52.044;7.472;2024-01-30T12:05:56;7.43;;;4.20;;
17886;SDS011;9069;52.044;7.472;2024-01-30T12:08:25;5.80;;;3.83;;
17886;SDS011;9069;52.044;7.472;2024-01-30T12:10:58;8.23;;;4.25;;
17886;SDS011;9069;52.044;7.472;2024-01-30T12:13:27;7.97;;;3.90;;
17886;SDS011;9069;52.044;7.472;2024-01-30T12:15:59;4.95;;;3.88;;
17886;SDS011;9069;52.044;7.472;2024-01-30T12:18:28;6.53;;;3.92;;
17886;SDS011;9069;52.044;7.472;2024-01-30T12:20:58;9.75;;;3.63;;
17886;SDS011;9069;52.044;7.472;2024-01-30T12:23:28;6.10;;;3.80;;
17886;SDS011;9069;52.044;7.472;2024-01-30T12:25:56;6.95;;;3.97;;
17886;SDS011;9069;52.044;7.472;2024-01-30T12:28:23;8.32;;;4.18;;
17886;SDS011;9069;52.044;7.472;2024-01-30T12:30:50;8.95;;;4.50;;
17886;SDS011;9069;52.044;7.472;2024-01-30T12:33:20;8.02;;;4.80;;
17886;SDS011;9069;52.044;7.472;2024-01-30T12:35:48;6.32;;;4.38;;
17886;SDS011;9069;52.044;7.472;2024-01-30T12:38:27;6.20;;;3.83;;
17886;SDS011;9069;52.044;7.472;2024-01-30T12:40:54;7.93;;;4.38;;
17886;SDS011;9069;52.044;7.472;2024-01-30T12:43:23;10.35;;;4.07;;
17886;SDS011;9069;52.044;7.472;2024-01-30T12:46:03;11.20;;;4.32;;
17886;SDS011;9069;52.044;7.472;2024-01-30T12:48:30;6.07;;;3.80;;
17886;SDS011;9069;52.044;7.472;2024-01-30T12:50:57;6.65;;;3.67;;
17886;SDS011;9069;52.044;7.472;2024-01-30T12:53:24;7.60;;;4.18;;
17886;SDS011;9069;52.044;7.472;2024-01-30T12:55:51;7.45;;;3.92;;
17886;SDS011;9069;52.044;7.472;2024-01-30T12:58:20;8.00;;;4.60;;
17886;SDS011;9069;52.044;7.472;2024-01-30T13:00:47;10.57;;;4.03;;
17886;SDS011;9069;52.044;7.472;2024-01-30T13:03:14;10.65;;;4.07;;
17886;SDS011;9069;52.044;7.472;2024-01-30T13:05:41;7.80;;;4.15;;
17886;SDS011;9069;52.044;7.472;2024-01-30T13:08:09;9.02;;;4.55;;
17886;SDS011;9069;52.044;7.472;2024-01-30T13:10:35;7.30;;;4.10;;
17886;SDS011;9069;52.044;7.472;2024-01-30T13:13:02;10.50;;;4.50;;
17886;SDS011;9069;52.044;7.472;2024-01-30T13:15:29;6.30;;;4.18;;
17886;SDS011;9069;52.044;7.472;2024-01-30T13:17:56;9.13;;;4.13;;
17886;SDS011;9069;52.044;7.472;2024-01-30T13:20:23;9.10;;;3.92;;
17886;SDS011;9069;52.044;7.472;2024-01-30T13:22:49;9.50;;;4.20;;
17886;SDS011;9069;52.044;7.472;2024-01-30T13:25:16;8.20;;;3.95;;
17886;SDS011;9069;52.044;7.472;2024-01-30T13:27:43;9.15;;;3.78;;
17886;SDS011;9069;52.044;7.472;2024-01-30T13:30:10;6.22;;;3.80;;
17886;SDS011;9069;52.044;7.472;2024-01-30T13:32:37;9.73;;;4.60;;
17886;SDS011;9069;52.044;7.472;2024-01-30T13:35:04;7.43;;;4.10;;
17886;SDS011;9069;52.044;7.472;2024-01-30T13:37:32;9.07;;;4.05;;
17886;SDS011;9069;52.044;7.472;2024-01-30T13:40:00;9.02;;;4.47;;
17886;SDS011;9069;52.044;7.472;2024-01-30T13:42:31;6.85;;;4.53;;
17886;SDS011;9069;52.044;7.472;2024-01-30T13:44:58;6.25;;;4.35;;
17886;SDS011;9069;52.044;7.472;2024-01-30T13:47:26;9.70;;;4.57;;
17886;SDS011;9069;52.044;7.472;2024-01-30T13:49:55;7.50;;;5.05;;
17886;SDS011;9069;52.044;7.472;2024-01-30T13:52:22;8.02;;;3.72;;
17886;SDS011;9069;52.044;7.472;2024-01-30T13:54:57;6.35;;;4.07;;
17886;SDS011;9069;52.044;7.472;2024-01-30T13:57:24;7.30;;;4.72;;
17886;SDS011;9069;52.044;7.472;2024-01-30T13:59:51;6.22;;;4.10;;
17886;SDS011;9069;52.044;7.472;2024-01-30T14:02:18;8.98;;;4.53;;
17886;SDS011;9069;52.044;7.472;2024-01-30T14:04:45;9.98;;;4.28;;
17886;SDS011;9069;52.044;7.472;2024-01-30T14:07:12;7.70;;;4.25;;
17886;SDS011;9069;52.044;7.472;2024-01-30T14:09:39;6.20;;;4.18;;
17886;SDS011;9069;52.044;7.472;2024-01-30T14:12:08;9.35;;;4.28;;
17886;SDS011;9069;52.044;7.472;2024-01-30T14:14:35;8.23;;;4.50;;
17886;SDS011;9069;52.044;7.472;2024-01-30T14:17:02;8.82;;;4.60;;
17886;SDS011;9069;52.044;7.472;2024-01-30T14:19:29;6.28;;;4.00;;
17886;SDS011;9069;52.044;7.472;2024-01-30T14:21:56;13.55;;;4.38;;
17886;SDS011;9069;52.044;7.472;2024-01-30T14:24:23;6.47;;;3.97;;
17886;SDS011;9069;52.044;7.472;2024-01-30T14:26:50;6.50;;;4.15;;
17886;SDS011;9069;52.044;7.472;2024-01-30T14:29:17;6.03;;;4.00;;
17886;SDS011;9069;52.044;7.472;2024-01-30T14:31:44;10.32;;;4.50;;
17886;SDS011;9069;52.044;7.472;2024-01-30T14:34:11;7.75;;;4.68;;
17886;SDS011;9069;52.044;7.472;2024-01-30T14:36:38;6.70;;;4.50;;
17886;SDS011;9069;52.044;7.472;2024-01-30T14:39:06;9.65;;;5.20;;
17886;SDS011;9069;52.044;7.472;2024-01-30T14:41:33;7.63;;;4.82;;
17886;SDS011;9069;52.044;7.472;2024-01-30T14:44:00;9.02;;;4.32;;
17886;SDS011;9069;52.044;7.472;2024-01-30T14:46:28;7.10;;;4.40;;
17886;SDS011;9069;52.044;7.472;2024-01-30T14:48:55;8.25;;;4.28;;
17886;SDS011;9069;52.044;7.472;2024-01-30T14:51:24;8.27;;;4.82;;
17886;SDS011;9069;52.044;7.472;2024-01-30T14:53:51;9.95;;;4.63;;
17886;SDS011;9069;52.044;7.472;2024-01-30T14:56:17;6.13;;;4.43;;